Aviation Digital Data Service (ADDS)

Output produced by METARs form (1109 UTC 13 December 2017)
found at http://www.aviationweather.gov/adds/metars/
 
MSLP 131050Z 02015G25KT CAVOK 23/13 Q1012 A2990 NOSIG
TAF MSLP 130925Z 1312/1412 02012G22KT CAVOK TX33/1319Z TN23/1410Z 
     TEMPO 1318/1324 23006KT 
     FM140000 34006KT CAVOK
       
MSSS 130550Z 35011KT CAVOK 18/13 Q1019 A3009
TAF MSSS 130925Z 1312/1412 36010G20KT CAVOK TX28/1319Z TN17/1412Z 
     FM140000 36008KT